Time;durP1;ratioP1;P1;durP2;ratioP2;P2;SDS_P1;SDS_P2;PMS_P1;PMS_P2;Temp;Humidity;BMP_temperature;BMP_pressure;BME280_temperature;BME280_humidity;BME280_pressure;Samples;Min_cycle;Max_cycle;Signal;HPM_P1;HPM_P2
2023/11/05 00:01:46;;;;;;;7.57;4.10;;;8.80;99.90;;;;;;5125460;28;20024;-53
2023/11/05 00:04:12;;;;;;;8.80;3.50;;;8.80;99.90;;;;;;5125800;28;20023;-53
2023/11/05 00:06:38;;;;;;;10.80;4.47;;;8.80;99.90;;;;;;5124597;28;20142;-53
2023/11/05 00:09:04;;;;;;;11.23;5.18;;;8.80;99.90;;;;;;5125163;28;20038;-54
2023/11/05 00:11:29;;;;;;;7.70;4.85;;;8.80;99.90;;;;;;5125639;28;20055;-54
2023/11/05 00:13:55;;;;;;;11.13;4.80;;;8.80;99.90;;;;;;5125788;28;20226;-54
2023/11/05 00:16:22;;;;;;;7.60;4.35;;;8.80;99.90;;;;;;5124804;28;20088;-54
2023/11/05 00:18:48;;;;;;;11.27;4.45;;;8.80;99.90;;;;;;5127484;28;20086;-54
2023/11/05 00:21:14;;;;;;;10.35;5.13;;;8.80;99.90;;;;;;5129371;28;20038;-53
2023/11/05 00:23:40;;;;;;;10.43;4.40;;;8.80;99.90;;;;;;5128775;28;20024;-54
2023/11/05 00:26:05;;;;;;;7.65;4.25;;;8.90;99.90;;;;;;5129307;28;20280;-54
2023/11/05 00:28:31;;;;;;;9.95;3.92;;;8.90;99.90;;;;;;5129264;28;20036;-54
2023/11/05 00:30:58;;;;;;;8.82;3.63;;;9.00;99.90;;;;;;5128344;28;20024;-53
2023/11/05 00:33:24;;;;;;;8.60;3.67;;;9.00;99.90;;;;;;5129084;28;20086;-55
2023/11/05 00:35:50;;;;;;;8.15;4.07;;;9.10;99.90;;;;;;5129422;28;20031;-53
2023/11/05 00:38:16;;;;;;;10.43;3.65;;;9.10;99.90;;;;;;5129437;28;20261;-54
2023/11/05 00:40:41;;;;;;;9.85;3.63;;;9.10;99.90;;;;;;5128969;28;20023;-55
2023/11/05 00:43:07;;;;;;;5.10;3.33;;;9.10;99.90;;;;;;5129366;28;20088;-53
2023/11/05 00:45:33;;;;;;;8.55;3.22;;;9.20;99.90;;;;;;5129058;28;20041;-51
2023/11/05 00:47:59;;;;;;;9.93;3.40;;;9.20;99.90;;;;;;5129136;28;20149;-54
2023/11/05 00:50:25;;;;;;;7.47;3.20;;;9.20;99.90;;;;;;5129148;28;20300;-53
2023/11/05 00:52:50;;;;;;;8.90;3.15;;;9.20;99.90;;;;;;5128124;28;20049;-53
2023/11/05 00:55:17;;;;;;;10.80;3.55;;;9.20;99.90;;;;;;5128636;28;20189;-54
2023/11/05 00:57:43;;;;;;;10.52;3.40;;;9.10;99.90;;;;;;5127834;28;20039;-53
2023/11/05 01:00:10;;;;;;;8.00;3.08;;;9.10;99.90;;;;;;5128848;28;20089;-53
2023/11/05 01:02:36;;;;;;;5.97;3.47;;;9.10;99.90;;;;;;5128023;28;20296;-53
2023/11/05 01:05:03;;;;;;;6.75;3.22;;;9.00;99.90;;;;;;5128932;28;20039;-54
2023/11/05 01:07:29;;;;;;;6.05;2.95;;;9.00;99.90;;;;;;5128410;28;20313;-54
2023/11/05 01:09:54;;;;;;;4.88;2.78;;;9.10;99.90;;;;;;5128404;28;20041;-54
2023/11/05 01:12:20;;;;;;;7.38;2.72;;;9.10;99.90;;;;;;5128325;28;20309;-53
2023/11/05 01:14:46;;;;;;;6.65;3.10;;;9.10;99.90;;;;;;5128782;28;20031;-54
2023/11/05 01:17:12;;;;;;;10.38;3.00;;;9.10;99.90;;;;;;5127543;28;20207;-53
2023/11/05 01:19:41;;;;;;;5.65;2.60;;;9.20;99.90;;;;;;5128523;28;20036;-54
2023/11/05 01:22:06;;;;;;;5.38;2.75;;;9.20;99.90;;;;;;5128355;28;20051;-54
2023/11/05 01:24:32;;;;;;;7.57;3.00;;;9.20;99.90;;;;;;5128447;28;20304;-54
2023/11/05 01:26:58;;;;;;;8.50;2.90;;;9.20;99.90;;;;;;5127292;28;20032;-53
2023/11/05 01:29:24;;;;;;;9.75;3.22;;;9.30;99.90;;;;;;5127977;28;20027;-53
2023/11/05 01:31:49;;;;;;;8.57;2.95;;;9.30;99.90;;;;;;5127712;28;20030;-53
2023/11/05 01:34:15;;;;;;;10.57;2.90;;;9.30;99.90;;;;;;5127244;28;20035;-54
2023/11/05 01:36:41;;;;;;;9.00;3.00;;;9.30;99.90;;;;;;5128471;28;20051;-53
2023/11/05 01:39:07;;;;;;;9.23;2.50;;;9.30;99.90;;;;;;5128147;28;20054;-54
2023/11/05 01:41:33;;;;;;;5.97;2.63;;;9.30;99.90;;;;;;5128090;28;20179;-54
2023/11/05 01:43:59;;;;;;;7.00;3.05;;;9.30;99.90;;;;;;5128054;28;20024;-54
2023/11/05 01:46:25;;;;;;;8.02;3.03;;;9.30;99.90;;;;;;5127003;28;20062;-54
2023/11/05 01:48:51;;;;;;;6.97;2.50;;;9.30;99.90;;;;;;5127870;28;20092;-54
2023/11/05 01:51:17;;;;;;;6.75;2.38;;;9.40;99.90;;;;;;5127992;28;20051;-54
2023/11/05 01:53:43;;;;;;;7.80;2.47;;;9.40;99.90;;;;;;5126946;28;20333;-54
2023/11/05 01:56:09;;;;;;;5.53;2.42;;;9.40;99.90;;;;;;5126935;28;20086;-54
2023/11/05 01:58:36;;;;;;;3.90;2.00;;;9.40;99.90;;;;;;5126998;28;20031;-54
2023/11/05 02:01:02;;;;;;;5.90;2.03;;;9.40;99.90;;;;;;5127323;28;20023;-54
2023/11/05 02:03:27;;;;;;;9.90;2.63;;;9.40;99.90;;;;;;5109876;28;20027;-54
2023/11/05 02:05:53;;;;;;;6.72;2.10;;;9.30;99.90;;;;;;5127499;28;20091;-54
2023/11/05 02:08:18;;;;;;;5.60;2.10;;;9.40;99.90;;;;;;5127388;28;20050;-54
2023/11/05 02:10:45;;;;;;;3.05;1.95;;;9.40;99.90;;;;;;5127620;28;20032;-54
2023/11/05 02:13:11;;;;;;;4.90;2.00;;;9.30;99.90;;;;;;5127561;28;20232;-51
2023/11/05 02:15:36;;;;;;;5.28;2.20;;;9.30;99.90;;;;;;5127488;28;20019;-51
2023/11/05 02:18:02;;;;;;;5.47;2.00;;;9.30;99.90;;;;;;5127448;28;20027;-51
2023/11/05 02:20:28;;;;;;;4.68;2.08;;;9.30;99.90;;;;;;5127542;28;20277;-50
2023/11/05 02:22:54;;;;;;;4.72;2.10;;;9.20;99.90;;;;;;5127340;28;20016;-48
2023/11/05 02:25:19;;;;;;;5.30;2.10;;;9.20;99.90;;;;;;5126412;28;20038;-48
2023/11/05 02:27:47;;;;;;;6.85;2.15;;;9.10;99.90;;;;;;5127182;28;20080;-49
2023/11/05 02:30:15;;;;;;;5.88;2.30;;;9.10;99.90;;;;;;5126100;28;20146;-48
2023/11/05 02:32:41;;;;;;;4.15;2.08;;;9.00;99.90;;;;;;5126778;28;20321;-49
2023/11/05 02:35:07;;;;;;;5.70;1.92;;;8.90;99.90;;;;;;5127155;28;20023;-48
2023/11/05 02:37:33;;;;;;;5.65;1.95;;;8.90;99.90;;;;;;5127000;28;20277;-48
2023/11/05 02:39:59;;;;;;;4.80;1.98;;;8.80;99.90;;;;;;5126283;28;20174;-49
2023/11/05 02:42:25;;;;;;;6.07;1.85;;;8.70;99.90;;;;;;5126977;28;20035;-48
2023/11/05 02:44:51;;;;;;;5.85;2.20;;;8.60;99.90;;;;;;5126897;28;20074;-51
2023/11/05 02:47:17;;;;;;;5.20;2.25;;;8.50;99.90;;;;;;5126584;28;20058;-51
2023/11/05 02:49:43;;;;;;;4.45;1.92;;;8.40;99.90;;;;;;5126688;28;20035;-51
2023/11/05 02:52:08;;;;;;;8.38;2.42;;;8.40;99.90;;;;;;5126686;28;20065;-51
2023/11/05 02:54:34;;;;;;;7.55;2.75;;;8.30;99.90;;;;;;5126782;28;20035;-51
2023/11/05 02:57:00;;;;;;;4.25;2.00;;;8.30;99.90;;;;;;5126704;28;20043;-52
2023/11/05 02:59:28;;;;;;;4.75;1.98;;;8.30;99.90;;;;;;5126560;28;20023;-48
2023/11/05 03:01:53;;;;;;;4.03;2.00;;;8.20;99.90;;;;;;5126202;28;20081;-48
2023/11/05 03:04:19;;;;;;;9.50;2.42;;;8.10;99.90;;;;;;5126140;28;20024;-49
2023/11/05 03:06:51;;;;;;;4.45;2.15;;;8.10;99.90;;;;;;5126270;28;20155;-49
2023/11/05 03:09:20;;;;;;;4.82;2.10;;;8.00;99.90;;;;;;5126277;28;20044;-50
2023/11/05 03:11:46;;;;;;;4.22;2.20;;;8.00;99.90;;;;;;5125296;28;20098;-51
2023/11/05 03:14:12;;;;;;;6.82;2.42;;;7.90;99.90;;;;;;5126190;28;20047;-51
2023/11/05 03:16:41;;;;;;;5.75;2.22;;;7.90;99.90;;;;;;5126387;28;20090;-49
2023/11/05 03:19:07;;;;;;;6.55;1.88;;;7.80;99.90;;;;;;5125930;28;20323;-51
2023/11/05 03:21:32;;;;;;;6.38;2.05;;;7.90;99.90;;;;;;5126092;28;20086;-48
2023/11/05 03:23:58;;;;;;;5.80;2.33;;;7.90;99.90;;;;;;5126158;28;20095;-49
2023/11/05 03:26:27;;;;;;;5.75;2.30;;;7.90;99.90;;;;;;5125255;28;20099;-51
2023/11/05 03:28:52;;;;;;;4.93;2.00;;;7.90;99.90;;;;;;5125113;28;20032;-51
2023/11/05 03:31:19;;;;;;;5.10;2.25;;;8.00;99.90;;;;;;5125919;28;20094;-49
2023/11/05 03:33:44;;;;;;;6.60;2.75;;;8.00;99.90;;;;;;5126376;28;20034;-49
2023/11/05 03:36:10;;;;;;;7.25;2.13;;;8.00;99.90;;;;;;5126061;28;20043;-49
2023/11/05 03:38:36;;;;;;;6.65;2.55;;;8.10;99.90;;;;;;5126145;28;20042;-49
2023/11/05 03:41:02;;;;;;;6.05;2.35;;;8.00;99.90;;;;;;5126126;28;20031;-48
2023/11/05 03:43:28;;;;;;;6.78;2.20;;;8.10;99.90;;;;;;5124897;28;20088;-50
2023/11/05 03:45:55;;;;;;;6.80;2.40;;;8.20;99.90;;;;;;5126029;28;20031;-49
2023/11/05 03:48:20;;;;;;;5.47;2.03;;;8.20;99.90;;;;;;5125026;28;20133;-51
2023/11/05 03:50:46;;;;;;;4.78;2.22;;;8.30;99.90;;;;;;5124736;28;20256;-50
2023/11/05 03:53:12;;;;;;;6.13;2.20;;;8.30;99.90;;;;;;5126835;28;20077;-47
2023/11/05 03:55:38;;;;;;;6.05;2.17;;;8.30;99.90;;;;;;5130389;28;20273;-51
2023/11/05 03:58:04;;;;;;;7.25;2.33;;;8.30;99.90;;;;;;5129119;28;20034;-51
2023/11/05 04:00:29;;;;;;;5.63;2.00;;;8.30;99.90;;;;;;5130186;28;20281;-50
2023/11/05 04:02:56;;;;;;;5.43;2.90;;;8.30;99.90;;;;;;5112041;28;20027;-51
2023/11/05 04:05:22;;;;;;;5.60;1.83;;;8.20;99.90;;;;;;5129822;28;20120;-50
2023/11/05 04:07:49;;;;;;;6.13;2.20;;;8.20;99.90;;;;;;5111752;28;20047;-51
2023/11/05 04:10:15;;;;;;;8.55;2.35;;;8.20;99.90;;;;;;5129818;28;20039;-51
2023/11/05 04:12:41;;;;;;;4.68;1.95;;;8.10;99.90;;;;;;5130231;28;20034;-51
2023/11/05 04:15:07;;;;;;;5.10;2.03;;;8.00;99.90;;;;;;5130179;28;20028;-51
2023/11/05 04:17:34;;;;;;;5.75;2.42;;;8.00;99.90;;;;;;5129833;28;20027;-51
2023/11/05 04:20:00;;;;;;;13.88;5.20;;;8.00;99.90;;;;;;5129372;28;20037;-50
2023/11/05 04:22:25;;;;;;;13.13;4.07;;;8.00;99.90;;;;;;5128536;28;20039;-51
2023/11/05 04:24:55;;;;;;;7.85;2.88;;;8.00;99.90;;;;;;5129741;28;20031;-50
2023/11/05 04:27:20;;;;;;;5.80;2.85;;;8.00;99.90;;;;;;5129844;28;20036;-50
2023/11/05 04:29:46;;;;;;;4.35;2.10;;;7.90;99.90;;;;;;5128471;28;20036;-50
2023/11/05 04:32:13;;;;;;;3.70;2.00;;;7.90;99.90;;;;;;5129022;28;20038;-48
2023/11/05 04:34:38;;;;;;;6.43;2.13;;;7.90;99.90;;;;;;5129745;28;20292;-51
2023/11/05 04:37:05;;;;;;;7.07;2.47;;;7.90;99.90;;;;;;5129473;28;20159;-50
2023/11/05 04:39:31;;;;;;;5.70;2.47;;;7.90;99.90;;;;;;5129487;28;20062;-49
2023/11/05 04:41:57;;;;;;;5.45;2.30;;;7.90;99.90;;;;;;5129227;28;20027;-48
2023/11/05 04:44:23;;;;;;;9.75;4.78;;;7.90;99.90;;;;;;5129341;28;20055;-50
2023/11/05 04:46:48;;;;;;;11.38;4.63;;;7.80;99.90;;;;;;5128560;28;20129;-48
2023/11/05 04:49:14;;;;;;;7.00;3.03;;;7.70;99.90;;;;;;5128042;28;20110;-49
2023/11/05 04:51:42;;;;;;;6.38;3.10;;;7.70;99.90;;;;;;5128946;28;20096;-50
2023/11/05 04:54:07;;;;;;;7.07;2.70;;;7.60;99.90;;;;;;5128949;28;20034;-49
2023/11/05 04:56:33;;;;;;;6.88;2.67;;;7.50;99.90;;;;;;5129134;28;20016;-49
2023/11/05 04:58:59;;;;;;;6.30;2.45;;;7.50;99.90;;;;;;5127919;28;20246;-51
2023/11/05 05:01:24;;;;;;;6.70;2.10;;;7.50;99.90;;;;;;5127727;28;20032;-51
2023/11/05 05:03:51;;;;;;;6.80;2.40;;;7.50;99.90;;;;;;5127955;28;20087;-51
2023/11/05 05:06:17;;;;;;;5.97;2.40;;;7.50;99.90;;;;;;5127379;28;20051;-51
2023/11/05 05:08:42;;;;;;;4.72;2.13;;;7.50;99.90;;;;;;5128869;28;20167;-50
2023/11/05 05:11:09;;;;;;;8.60;2.45;;;7.50;99.90;;;;;;5127940;28;20099;-51
2023/11/05 05:13:35;;;;;;;4.50;2.13;;;7.60;99.90;;;;;;5128605;28;20020;-51
2023/11/05 05:16:03;;;;;;;4.97;2.60;;;7.60;99.90;;;;;;5128652;28;20034;-52
2023/11/05 05:18:28;;;;;;;4.97;2.25;;;7.60;99.90;;;;;;5129015;28;20038;-51
2023/11/05 05:20:54;;;;;;;5.32;2.00;;;7.70;99.90;;;;;;5128588;28;20055;-50
2023/11/05 05:23:20;;;;;;;4.40;1.30;;;7.70;99.90;;;;;;5127248;28;20102;-48
2023/11/05 05:25:45;;;;;;;3.20;1.13;;;7.90;99.90;;;;;;5127098;28;20058;-48
2023/11/05 05:28:11;;;;;;;2.65;0.98;;;8.00;99.90;;;;;;5128547;28;20050;-48
2023/11/05 05:30:37;;;;;;;3.53;1.23;;;8.10;99.90;;;;;;5128828;28;20135;-48
2023/11/05 05:33:03;;;;;;;3.88;1.20;;;8.20;99.90;;;;;;5129078;28;20030;-48
2023/11/05 05:35:30;;;;;;;3.22;1.40;;;8.30;99.90;;;;;;5128406;28;20274;-48
2023/11/05 05:37:56;;;;;;;3.47;1.23;;;8.30;99.90;;;;;;5127760;28;20047;-48
2023/11/05 05:40:21;;;;;;;2.65;1.25;;;8.40;99.90;;;;;;5128285;28;20031;-48
2023/11/05 05:42:48;;;;;;;3.80;1.40;;;8.30;99.90;;;;;;5127146;28;20038;-48
2023/11/05 05:45:14;;;;;;;4.40;1.63;;;8.50;99.90;;;;;;5127956;28;20277;-48
2023/11/05 05:47:41;;;;;;;5.00;1.70;;;8.60;99.90;;;;;;5126943;28;20088;-48
2023/11/05 05:50:07;;;;;;;4.43;2.00;;;8.70;99.90;;;;;;5127044;28;20035;-47
2023/11/05 05:52:33;;;;;;;6.88;1.90;;;8.80;99.90;;;;;;5128619;28;20028;-48
2023/11/05 05:55:00;;;;;;;4.22;1.92;;;8.80;99.90;;;;;;5127096;28;20023;-47
2023/11/05 05:57:27;;;;;;;6.90;2.00;;;8.80;99.90;;;;;;5128061;28;20083;-47
2023/11/05 05:59:53;;;;;;;6.30;1.83;;;8.90;99.90;;;;;;5127602;28;20035;-47
2023/11/05 06:02:19;;;;;;;5.55;1.50;;;8.90;99.90;;;;;;5127885;28;20020;-47
2023/11/05 06:04:46;;;;;;;2.63;1.30;;;8.90;99.90;;;;;;5128298;28;20072;-47
2023/11/05 06:07:12;;;;;;;5.25;1.35;;;8.90;99.90;;;;;;5126495;28;20071;-48
2023/11/05 06:09:38;;;;;;;5.55;1.30;;;8.90;99.90;;;;;;5127649;28;20038;-48
2023/11/05 06:12:04;;;;;;;4.30;1.15;;;8.90;99.90;;;;;;5126566;28;20324;-47
2023/11/05 06:14:30;;;;;;;3.35;1.02;;;8.90;99.90;;;;;;5126442;28;20052;-47
2023/11/05 06:16:56;;;;;;;6.00;2.30;;;8.90;99.90;;;;;;5127319;28;20330;-47
2023/11/05 06:19:21;;;;;;;4.93;1.70;;;8.90;99.90;;;;;;5126664;28;20210;-47
2023/11/05 06:21:47;;;;;;;3.35;1.60;;;8.80;99.90;;;;;;5127565;28;20184;-47
2023/11/05 06:24:13;;;;;;;4.18;1.85;;;8.80;99.90;;;;;;5127354;28;20081;-47
2023/11/05 06:26:41;;;;;;;4.95;2.78;;;8.80;99.90;;;;;;5127827;28;20257;-47
2023/11/05 06:29:07;;;;;;;5.72;2.70;;;8.80;99.90;;;;;;5127155;28;20221;-47
2023/11/05 06:31:33;;;;;;;3.30;1.60;;;8.70;99.90;;;;;;5127282;28;20016;-47
2023/11/05 06:33:58;;;;;;;3.33;1.45;;;8.80;99.90;;;;;;5127114;28;20023;-48
2023/11/05 06:36:24;;;;;;;5.18;2.00;;;8.70;99.90;;;;;;5127115;28;20024;-48
2023/11/05 06:38:50;;;;;;;3.10;1.40;;;8.70;99.90;;;;;;5109074;28;20234;-49
2023/11/05 06:41:16;;;;;;;4.93;1.73;;;8.70;99.90;;;;;;5126625;28;20166;-48
2023/11/05 06:43:42;;;;;;;4.05;1.63;;;8.80;99.90;;;;;;5126898;28;20088;-48
2023/11/05 06:46:08;;;;;;;4.95;1.48;;;8.80;99.90;;;;;;5126573;28;20019;-48
2023/11/05 06:48:33;;;;;;;4.43;1.40;;;8.80;99.90;;;;;;5126948;28;20031;-49
2023/11/05 06:50:59;;;;;;;5.68;1.45;;;8.80;99.90;;;;;;5127081;28;20027;-51
2023/11/05 06:53:25;;;;;;;3.55;1.63;;;8.80;99.90;;;;;;5126274;28;20038;-51
2023/11/05 06:55:50;;;;;;;5.28;1.52;;;8.80;99.90;;;;;;5126953;28;20143;-51
2023/11/05 06:58:17;;;;;;;6.03;1.67;;;8.80;99.90;;;;;;5125790;28;20035;-51
2023/11/05 07:00:44;;;;;;;4.03;1.40;;;8.80;99.90;;;;;;5126212;28;20023;-51
2023/11/05 07:03:10;;;;;;;6.68;1.40;;;8.90;99.90;;;;;;5125712;28;20038;-51
2023/11/05 07:05:36;;;;;;;4.85;2.03;;;8.90;99.90;;;;;;5126700;28;20034;-51
2023/11/05 07:08:05;;;;;;;4.28;1.50;;;8.90;99.90;;;;;;5126435;28;20051;-52
2023/11/05 07:10:31;;;;;;;5.63;1.60;;;8.80;99.90;;;;;;5125909;28;20035;-50
2023/11/05 07:12:57;;;;;;;4.38;1.40;;;8.80;99.90;;;;;;5126729;28;20303;-51
2023/11/05 07:15:24;;;;;;;6.15;1.70;;;8.80;99.90;;;;;;5126224;28;20162;-49
2023/11/05 07:17:50;;;;;;;6.00;1.60;;;8.70;99.90;;;;;;5126160;28;20020;-49
2023/11/05 07:20:15;;;;;;;4.88;1.40;;;8.70;99.90;;;;;;5126658;28;20035;-48
2023/11/05 07:22:42;;;;;;;6.97;1.40;;;8.70;99.90;;;;;;5126831;28;20020;-51
2023/11/05 07:25:08;;;;;;;5.80;1.33;;;8.70;99.90;;;;;;5126592;28;20138;-52
2023/11/05 07:27:35;;;;;;;3.45;1.30;;;8.70;99.90;;;;;;5124674;28;20085;-51
2023/11/05 07:30:02;;;;;;;5.32;1.40;;;8.70;99.90;;;;;;5125858;28;20080;-52
2023/11/05 07:32:28;;;;;;;4.45;1.20;;;8.60;99.90;;;;;;5124831;28;20019;-51
2023/11/05 07:34:54;;;;;;;4.95;1.30;;;8.60;99.90;;;;;;5126184;28;20034;-49
2023/11/05 07:37:19;;;;;;;3.97;1.38;;;8.60;99.90;;;;;;5124880;28;20031;-51
2023/11/05 07:39:45;;;;;;;4.57;1.35;;;8.50;99.90;;;;;;5126006;28;20031;-49
2023/11/05 07:42:11;;;;;;;5.25;1.30;;;8.50;99.90;;;;;;5126118;28;20104;-49
2023/11/05 07:44:36;;;;;;;7.50;2.38;;;8.50;99.90;;;;;;5126500;28;20025;-51
2023/11/05 07:47:03;;;;;;;7.60;1.48;;;8.50;99.90;;;;;;5124671;28;20032;-51
2023/11/05 07:49:28;;;;;;;5.22;1.35;;;8.50;99.90;;;;;;5125924;28;20049;-51
2023/11/05 07:51:54;;;;;;;8.23;1.60;;;8.50;99.90;;;;;;5125933;28;20028;-51
2023/11/05 07:54:20;;;;;;;5.10;1.73;;;8.50;99.90;;;;;;5126087;28;20031;-49
2023/11/05 07:56:45;;;;;;;7.35;1.80;;;8.50;99.90;;;;;;5126051;28;20082;-49
2023/11/05 07:59:11;;;;;;;9.25;2.10;;;8.60;99.90;;;;;;5126504;28;20024;-50
2023/11/05 08:01:37;;;;;;;7.13;1.90;;;8.70;99.90;;;;;;5126123;28;20081;-50
2023/11/05 08:04:03;;;;;;;3.97;1.55;;;8.80;99.90;;;;;;5125760;28;20023;-48
2023/11/05 08:06:29;;;;;;;5.00;2.08;;;8.80;99.90;;;;;;5124699;28;20301;-48
2023/11/05 08:08:54;;;;;;;3.03;1.45;;;8.90;99.90;;;;;;5125250;28;20043;-47
2023/11/05 08:11:20;;;;;;;3.80;1.42;;;9.00;99.90;;;;;;5125892;28;20032;-49
2023/11/05 08:13:45;;;;;;;9.20;1.70;;;9.10;99.90;;;;;;5125993;28;20015;-50
2023/11/05 08:16:11;;;;;;;5.60;1.67;;;9.20;99.90;;;;;;5125862;28;20308;-50
2023/11/05 08:18:38;;;;;;;3.85;1.55;;;9.20;99.90;;;;;;5126020;28;20027;-49
2023/11/05 08:21:06;;;;;;;5.43;2.13;;;9.30;99.90;;;;;;5125300;28;20019;-51
2023/11/05 08:23:32;;;;;;;6.25;1.95;;;9.30;99.90;;;;;;5125298;28;20159;-51
2023/11/05 08:25:59;;;;;;;4.68;1.85;;;9.30;99.90;;;;;;5124787;28;20032;-47
2023/11/05 08:28:24;;;;;;;10.25;2.13;;;9.40;99.90;;;;;;5125572;28;20019;-51
2023/11/05 08:30:50;;;;;;;4.75;1.80;;;9.50;99.90;;;;;;5125682;28;20284;-51
2023/11/05 08:33:16;;;;;;;8.30;2.30;;;9.50;99.90;;;;;;5125457;28;20031;-51
2023/11/05 08:35:42;;;;;;;8.52;2.30;;;9.60;99.90;;;;;;5125431;28;20024;-51
2023/11/05 08:38:07;;;;;;;6.45;2.40;;;9.60;99.90;;;;;;5124622;28;20087;-49
2023/11/05 08:40:33;;;;;;;11.30;3.25;;;9.70;99.90;;;;;;5128368;28;20297;-51
2023/11/05 08:42:59;;;;;;;9.75;2.30;;;9.70;99.90;;;;;;5129630;28;20027;-50
2023/11/05 08:45:25;;;;;;;7.07;2.33;;;9.80;99.90;;;;;;5129324;28;20028;-51
2023/11/05 08:47:51;;;;;;;5.22;2.28;;;9.80;99.90;;;;;;5129046;28;20066;-51
2023/11/05 08:50:19;;;;;;;6.05;1.90;;;9.80;99.90;;;;;;5129221;28;20043;-52
2023/11/05 08:52:45;;;;;;;5.53;2.05;;;9.90;99.90;;;;;;5129150;28;20023;-51
2023/11/05 08:55:12;;;;;;;8.15;2.40;;;10.00;99.90;;;;;;5129015;28;20020;-51
2023/11/05 08:57:38;;;;;;;3.83;1.98;;;10.00;99.90;;;;;;5129118;28;20039;-51
2023/11/05 09:00:09;;;;;;;5.90;2.22;;;10.00;99.90;;;;;;5128899;28;20058;-50
2023/11/05 09:02:35;;;;;;;3.92;2.08;;;10.00;99.90;;;;;;5129640;28;20023;-47
2023/11/05 09:05:01;;;;;;;4.88;1.95;;;10.00;99.90;;;;;;5128106;28;20024;-49
2023/11/05 09:07:26;;;;;;;3.03;1.92;;;10.10;99.90;;;;;;5128277;28;20055;-50
2023/11/05 09:09:52;;;;;;;6.78;2.80;;;10.10;99.90;;;;;;5127613;28;20301;-48
2023/11/05 09:12:18;;;;;;;5.75;2.00;;;10.20;99.90;;;;;;5128917;28;20015;-49
2023/11/05 09:14:43;;;;;;;4.60;1.70;;;10.20;99.90;;;;;;5128901;28;20086;-49
2023/11/05 09:17:09;;;;;;;5.65;1.73;;;10.30;99.90;;;;;;5127984;28;20040;-50
2023/11/05 09:19:35;;;;;;;6.28;1.90;;;10.30;99.90;;;;;;5128320;28;20023;-51
2023/11/05 09:22:01;;;;;;;6.25;1.98;;;10.30;99.90;;;;;;5127671;28;20023;-50
2023/11/05 09:24:29;;;;;;;10.93;2.45;;;10.40;99.90;;;;;;5128532;28;20103;-48
2023/11/05 09:26:55;;;;;;;5.22;2.03;;;10.40;99.90;;;;;;5128421;28;20023;-50
2023/11/05 09:29:21;;;;;;;5.50;2.35;;;10.50;99.90;;;;;;5128146;28;20054;-50
2023/11/05 09:31:50;;;;;;;7.57;2.40;;;10.50;99.90;;;;;;5129078;28;20023;-51
2023/11/05 09:34:15;;;;;;;6.45;2.72;;;10.50;99.90;;;;;;5128390;28;20088;-50
2023/11/05 09:36:41;;;;;;;6.85;2.20;;;10.60;99.90;;;;;;5128578;28;20050;-50
2023/11/05 09:39:07;;;;;;;5.03;2.28;;;10.70;99.90;;;;;;5127627;28;20027;-51
2023/11/05 09:41:36;;;;;;;22.70;2.72;;;10.70;99.90;;;;;;5128232;28;20072;-50
2023/11/05 09:44:03;;;;;;;5.90;2.03;;;10.70;99.90;;;;;;5128033;28;20033;-51
2023/11/05 09:46:28;;;;;;;7.13;1.98;;;10.80;99.90;;;;;;5110142;28;20065;-49
2023/11/05 09:48:54;;;;;;;4.47;2.08;;;10.80;99.90;;;;;;5127639;28;20364;-50
2023/11/05 09:51:20;;;;;;;7.97;2.05;;;10.90;99.90;;;;;;5127204;28;20058;-52
2023/11/05 09:53:46;;;;;;;6.28;1.92;;;10.90;99.90;;;;;;5128093;28;20214;-51
2023/11/05 09:56:12;;;;;;;6.38;1.65;;;11.00;99.90;;;;;;5127800;28;20027;-50
2023/11/05 09:58:38;;;;;;;6.70;1.73;;;11.00;99.90;;;;;;5126692;28;20292;-51
2023/11/05 10:01:05;;;;;;;5.38;1.52;;;11.10;99.90;;;;;;5127770;28;20088;-51
2023/11/05 10:03:30;;;;;;;2.42;1.40;;;11.30;99.90;;;;;;5127000;28;20039;-51
2023/11/05 10:05:56;;;;;;;3.78;1.50;;;11.40;99.90;;;;;;5127912;28;20041;-48
2023/11/05 10:08:23;;;;;;;4.22;1.33;;;11.40;99.90;;;;;;5127601;28;20035;-51
2023/11/05 10:10:52;;;;;;;6.50;1.80;;;11.40;99.90;;;;;;5127203;28;20032;-50
2023/11/05 10:13:17;;;;;;;3.65;1.30;;;11.50;99.90;;;;;;5127144;28;20043;-51
2023/11/05 10:15:45;;;;;;;5.55;1.42;;;11.60;99.90;;;;;;5127338;28;20027;-50
2023/11/05 10:18:17;;;;;;;2.42;1.23;;;11.70;99.90;;;;;;5126567;28;20092;-48
2023/11/05 10:20:50;;;;;;;3.25;1.15;;;11.70;99.90;;;;;;5127547;28;20016;-49
2023/11/05 10:23:16;;;;;;;7.53;1.90;;;11.80;99.90;;;;;;5126853;28;20407;-50
2023/11/05 10:25:52;;;;;;;3.17;1.55;;;11.80;99.90;;;;;;5127169;28;20039;-51
2023/11/05 10:28:22;;;;;;;3.47;1.30;;;11.80;99.90;;;;;;5127463;28;20079;-50
2023/11/05 10:30:52;;;;;;;3.47;1.20;;;11.80;99.90;;;;;;5127300;28;20015;-48
2023/11/05 10:33:18;;;;;;;4.75;1.80;;;11.80;99.90;;;;;;5126990;28;20219;-51
2023/11/05 10:35:44;;;;;;;4.03;1.52;;;11.90;99.90;;;;;;5126939;28;20023;-51
2023/11/05 10:38:14;;;;;;;3.95;1.75;;;12.00;99.90;;;;;;5126993;28;20165;-51
2023/11/05 10:40:39;;;;;;;4.22;1.90;;;12.20;99.90;;;;;;5127502;28;20028;-51
2023/11/05 10:43:06;;;;;;;4.97;1.48;;;12.20;99.90;;;;;;5125919;28;20088;-52
2023/11/05 10:45:32;;;;;;;3.15;1.58;;;12.10;99.90;;;;;;5126766;28;20284;-52
2023/11/05 10:47:58;;;;;;;3.10;1.67;;;12.10;99.90;;;;;;5108844;28;20087;-51
2023/11/05 10:50:25;;;;;;;4.90;2.13;;;12.40;99.90;;;;;;5126644;28;20027;-52
2023/11/05 10:52:53;;;;;;;28.13;17.05;;;13.50;99.90;;;;;;5109305;28;20281;-52
2023/11/05 10:55:20;;;;;;;7.97;2.28;;;13.20;99.90;;;;;;5125346;28;20095;-51
2023/11/05 10:57:47;;;;;;;7.07;3.15;;;12.70;99.90;;;;;;5108958;28;20034;-51
2023/11/05 11:00:16;;;;;;;4.30;1.75;;;12.40;99.90;;;;;;5125804;28;20297;-51
2023/11/05 11:02:45;;;;;;;4.32;1.70;;;12.20;99.90;;;;;;5125708;28;20040;-51
2023/11/05 11:05:14;;;;;;;8.07;3.10;;;11.90;99.90;;;;;;5126561;28;20065;-51
2023/11/05 11:07:40;;;;;;;4.28;1.67;;;11.80;99.90;;;;;;5125227;28;20035;-49
2023/11/05 11:10:09;;;;;;;4.03;2.03;;;12.50;99.90;;;;;;5126329;28;20356;-50
2023/11/05 11:12:35;;;;;;;15.43;12.05;;;15.00;99.90;;;;;;5126523;28;20023;-51
2023/11/05 11:15:07;;;;;;;6.40;2.47;;;16.70;99.90;;;;;;5125253;28;20062;-50
2023/11/05 11:17:33;;;;;;;4.70;1.58;;;16.90;99.90;;;;;;5126128;28;20051;-50
2023/11/05 11:20:10;;;;;;;5.25;1.48;;;16.30;99.90;;;;;;5126049;28;20023;-51
2023/11/05 11:22:42;;;;;;;3.47;1.58;;;15.20;99.90;;;;;;5126220;28;20281;-49
2023/11/05 11:25:10;;;;;;;6.00;1.60;;;14.40;99.90;;;;;;5126926;28;20314;-51
2023/11/05 11:27:41;;;;;;;3.75;1.58;;;13.70;99.90;;;;;;5125930;28;20046;-49
2023/11/05 11:30:09;;;;;;;8.63;1.55;;;13.30;99.90;;;;;;5125895;28;20058;-50
2023/11/05 11:32:36;;;;;;;9.80;8.52;;;12.90;99.90;;;;;;5125020;28;20188;-50
2023/11/05 11:35:02;;;;;;;3.83;1.92;;;12.70;99.90;;;;;;5125038;28;20038;-50
2023/11/05 11:37:28;;;;;;;4.95;2.25;;;14.40;99.90;;;;;;5126000;28;20269;-48
2023/11/05 11:39:55;;;;;;;6.25;2.60;;;16.20;99.90;;;;;;5126261;28;20178;-50
2023/11/05 11:42:21;;;;;;;5.78;1.90;;;15.60;99.90;;;;;;5125908;28;20032;-51
2023/11/05 11:44:46;;;;;;;12.18;4.75;;;16.30;99.90;;;;;;5126144;28;20035;-51
2023/11/05 11:47:12;;;;;;;3.45;2.03;;;18.20;98.20;;;;;;5124710;28;20027;-51
2023/11/05 11:49:38;;;;;;;7.35;2.83;;;19.50;91.40;;;;;;5125003;28;20023;-52
2023/11/05 11:52:07;;;;;;;3.80;1.90;;;20.40;77.90;;;;;;5125842;28;20053;-51
2023/11/05 11:54:32;;;;;;;4.20;1.52;;;20.70;70.70;;;;;;5126136;28;20266;-52
2023/11/05 11:56:58;;;;;;;4.43;1.48;;;20.10;67.80;;;;;;5125978;28;20058;-50
2023/11/05 11:59:25;;;;;;;3.88;2.80;;;19.50;77.30;;;;;;5124987;28;20054;-53
2023/11/05 12:01:50;;;;;;;3.33;1.85;;;20.80;75.40;;;;;;5125952;28;20028;-53
2023/11/05 12:04:17;;;;;;;3.22;1.58;;;21.70;65.70;;;;;;5125824;28;20192;-54
2023/11/05 12:06:45;;;;;;;3.53;1.10;;;21.80;58.30;;;;;;5124781;28;20051;-50
2023/11/05 12:09:21;;;;;;;4.50;2.30;;;22.00;55.20;;;;;;5125843;28;20070;-53
2023/11/05 12:11:49;;;;;;;5.15;1.30;;;20.60;61.60;;;;;;5125747;28;20331;-53
2023/11/05 12:14:27;;;;;;;4.28;1.35;;;19.10;72.40;;;;;;5127104;28;20023;-53
2023/11/05 12:16:54;;;;;;;3.20;1.20;;;17.90;85.30;;;;;;5129006;28;20023;-51
2023/11/05 12:19:20;;;;;;;5.32;1.15;;;17.00;91.00;;;;;;5128761;28;20034;-52
2023/11/05 12:21:46;;;;;;;4.90;2.20;;;16.50;97.20;;;;;;5129407;28;20039;-52
2023/11/05 12:24:15;;;;;;;4.63;1.90;;;17.10;97.40;;;;;;5129575;28;20023;-50
2023/11/05 12:26:41;;;;;;;3.73;2.37;;;17.50;93.40;;;;;;5128538;28;20285;-51
2023/11/05 12:29:13;;;;;;;4.72;2.10;;;17.70;92.10;;;;;;5111768;28;20038;-52
2023/11/05 12:31:39;;;;;;;6.03;1.95;;;17.10;91.90;;;;;;5128541;28;20201;-53
2023/11/05 12:34:05;;;;;;;4.57;2.05;;;18.90;86.20;;;;;;5128738;28;20020;-53
2023/11/05 12:36:31;;;;;;;3.83;1.85;;;17.90;77.10;;;;;;5129421;28;20024;-53
2023/11/05 12:38:58;;;;;;;3.88;1.80;;;16.70;92.90;;;;;;5128169;28;20059;-52
2023/11/05 12:41:24;;;;;;;3.75;1.70;;;16.10;99.00;;;;;;5129272;28;20110;-53
2023/11/05 12:43:49;;;;;;;3.13;1.50;;;15.60;99.90;;;;;;5129495;28;20162;-49
2023/11/05 12:46:15;;;;;;;6.38;2.50;;;15.30;99.90;;;;;;5128966;28;20039;-48
2023/11/05 12:48:41;;;;;;;3.92;1.58;;;15.10;99.90;;;;;;5129185;28;20094;-49